Time;durP1;ratioP1;P1;durP2;ratioP2;P2;SDS_P1;SDS_P2;PMS_P1;PMS_P2;Temp;Humidity;BMP_temperature;BMP_pressure;BME280_temperature;BME280_humidity;BME280_pressure;Samples;Min_cycle;Max_cycle;Signal;HPM_P1;HPM_P2
2021/05/12 00:01:38;;;;;;;0.50;0.40;;;12.70;99.90;;;;;;4992055;28;20248;-77
2021/05/12 00:04:05;;;;;;;0.60;0.60;;;12.70;99.90;;;;;;4992219;28;20587;-77
2021/05/12 00:06:31;;;;;;;0.50;0.40;;;12.70;99.90;;;;;;4994001;28;20212;-77
2021/05/12 00:08:57;;;;;;;0.52;0.40;;;12.70;99.90;;;;;;4995564;28;20662;-77
2021/05/12 00:11:23;;;;;;;0.50;0.50;;;12.70;99.90;;;;;;4996211;28;20213;-78
2021/05/12 00:13:51;;;;;;;0.50;0.40;;;12.70;99.90;;;;;;4995979;28;20219;-76
2021/05/12 00:16:17;;;;;;;0.95;0.95;;;12.70;99.90;;;;;;4996230;28;20338;-76
2021/05/12 00:18:45;;;;;;;0.50;0.40;;;12.70;99.90;;;;;;4995826;28;20352;-77
2021/05/12 00:21:21;;;;;;;0.50;0.40;;;12.70;99.90;;;;;;4996243;28;20547;-77
2021/05/12 00:23:57;;;;;;;0.77;0.60;;;12.70;99.90;;;;;;4995434;28;20642;-77
2021/05/12 00:26:23;;;;;;;1.92;1.83;;;12.70;99.90;;;;;;4996426;28;20307;-75
2021/05/12 00:28:49;;;;;;;0.50;0.40;;;12.70;99.90;;;;;;4996124;28;20193;-78
2021/05/12 00:31:16;;;;;;;0.60;0.50;;;12.60;99.90;;;;;;4995954;28;20197;-76
2021/05/12 00:33:43;;;;;;;3.90;1.45;;;12.70;99.90;;;;;;4995371;28;20258;-77
2021/05/12 00:36:09;;;;;;;0.50;0.40;;;12.60;99.90;;;;;;4995791;28;20220;-78
2021/05/12 00:38:35;;;;;;;9.48;3.45;;;12.60;99.90;;;;;;4995578;28;20263;-77
2021/05/12 00:41:04;;;;;;;0.68;0.68;;;12.60;99.90;;;;;;4995819;28;20195;-77
2021/05/12 00:43:30;;;;;;;1.45;1.10;;;12.60;99.90;;;;;;4994942;28;20226;-78
2021/05/12 00:45:56;;;;;;;0.70;0.70;;;12.60;99.90;;;;;;4995445;28;20311;-77
2021/05/12 00:48:23;;;;;;;0.60;0.50;;;12.60;99.90;;;;;;4995794;28;20205;-76
2021/05/12 00:50:49;;;;;;;1.98;1.48;;;12.60;99.90;;;;;;4995624;28;20207;-77
2021/05/12 00:53:16;;;;;;;17.33;15.77;;;12.60;99.90;;;;;;4995085;28;20200;-77
2021/05/12 00:55:42;;;;;;;0.50;0.40;;;12.60;99.90;;;;;;4995724;28;20223;-78
2021/05/12 00:58:08;;;;;;;0.60;0.60;;;12.50;99.90;;;;;;5001497;28;20736;-75
2021/05/12 01:00:34;;;;;;;5.15;4.13;;;12.50;99.90;;;;;;4995746;28;20189;-76
2021/05/12 01:03:02;;;;;;;0.50;0.40;;;12.50;99.90;;;;;;4995296;28;20208;-78
2021/05/12 01:05:41;;;;;;;0.50;0.47;;;12.50;99.90;;;;;;4994993;28;20223;-78
2021/05/12 01:08:07;;;;;;;1.17;0.75;;;12.50;99.90;;;;;;4995341;28;20550;-77
2021/05/12 01:10:35;;;;;;;0.85;0.82;;;12.40;99.90;;;;;;4995608;28;20193;-78
2021/05/12 01:13:02;;;;;;;0.50;0.40;;;12.40;99.90;;;;;;4995388;28;20274;-78
2021/05/12 01:15:29;;;;;;;0.88;0.88;;;12.30;99.90;;;;;;4994632;28;20278;-80
2021/05/12 01:18:08;;;;;;;1.00;0.95;;;12.40;99.90;;;;;;4994112;28;20212;-78
2021/05/12 01:20:48;;;;;;;0.57;0.55;;;12.30;99.90;;;;;;4995353;28;20188;-78
2021/05/12 01:23:15;;;;;;;2.67;2.10;;;12.30;99.90;;;;;;4995042;28;20177;-76
2021/05/12 01:25:41;;;;;;;0.50;0.47;;;12.20;99.90;;;;;;4995291;28;20225;-78
2021/05/12 01:28:07;;;;;;;0.75;0.75;;;12.20;99.90;;;;;;4995256;28;20583;-79
2021/05/12 01:30:33;;;;;;;1.50;1.40;;;12.20;99.90;;;;;;4994317;28;20681;-80
2021/05/12 01:33:00;;;;;;;0.50;0.40;;;12.10;99.90;;;;;;4994943;28;20208;-80
2021/05/12 01:35:27;;;;;;;1.50;1.42;;;12.10;99.90;;;;;;4995207;28;20328;-78
2021/05/12 01:37:54;;;;;;;1.25;1.05;;;12.10;99.90;;;;;;4995438;28;20213;-78
2021/05/12 01:40:21;;;;;;;0.50;0.40;;;12.00;99.90;;;;;;4995827;28;20204;-78
2021/05/12 01:42:47;;;;;;;0.65;0.65;;;12.00;99.90;;;;;;4995493;28;20200;-78
2021/05/12 01:45:15;;;;;;;0.68;0.68;;;11.90;99.90;;;;;;4994710;28;20235;-77
2021/05/12 01:47:41;;;;;;;1.05;1.05;;;11.90;99.90;;;;;;4995896;28;20566;-77
2021/05/12 01:50:11;;;;;;;5.40;4.85;;;11.90;99.90;;;;;;4995280;28;20228;-76
2021/05/12 01:52:38;;;;;;;0.60;0.60;;;11.80;99.90;;;;;;4994067;28;20668;-76
2021/05/12 01:55:07;;;;;;;0.50;0.40;;;11.80;99.90;;;;;;4996956;28;20644;-79
2021/05/12 01:57:33;;;;;;;0.60;0.60;;;11.80;99.90;;;;;;5002493;28;20330;-78
2021/05/12 02:00:00;;;;;;;1.45;1.45;;;11.70;99.90;;;;;;4993974;28;20198;-78
2021/05/12 02:02:26;;;;;;;0.50;0.40;;;11.70;99.90;;;;;;4994523;28;20203;-77
2021/05/12 02:04:52;;;;;;;0.50;0.40;;;11.60;99.90;;;;;;4994154;28;20223;-78
2021/05/12 02:07:18;;;;;;;1.15;1.15;;;11.60;99.90;;;;;;4994070;28;20207;-78
2021/05/12 02:09:51;;;;;;;0.50;0.40;;;11.50;99.90;;;;;;4994164;28;20204;-78
2021/05/12 02:12:18;;;;;;;3.65;3.33;;;11.50;99.90;;;;;;4993801;28;20184;-78
2021/05/12 02:14:44;;;;;;;0.50;0.40;;;11.50;99.90;;;;;;4994142;28;20219;-78
2021/05/12 02:17:11;;;;;;;0.50;0.40;;;11.40;99.90;;;;;;4993817;28;20555;-78
2021/05/12 02:19:37;;;;;;;0.68;0.68;;;11.30;99.90;;;;;;4993665;28;20220;-79
2021/05/12 02:22:03;;;;;;;0.80;0.80;;;11.30;99.90;;;;;;4993990;28;20270;-79
2021/05/12 02:24:29;;;;;;;0.60;0.57;;;11.30;99.90;;;;;;4993598;28;20660;-77
2021/05/12 02:26:55;;;;;;;0.95;0.95;;;11.20;99.90;;;;;;4992982;28;20202;-78
2021/05/12 02:29:22;;;;;;;2.35;2.25;;;11.20;99.90;;;;;;4993503;28;20191;-78
2021/05/12 02:31:49;;;;;;;1.17;1.15;;;11.20;99.90;;;;;;4993768;28;20211;-77
2021/05/12 02:34:15;;;;;;;1.63;1.52;;;11.20;99.90;;;;;;4993495;28;20199;-77
2021/05/12 02:36:41;;;;;;;1.35;1.25;;;11.20;99.90;;;;;;4993492;28;20290;-78
2021/05/12 02:39:08;;;;;;;2.45;2.35;;;11.10;99.90;;;;;;4993241;28;20776;-78
2021/05/12 02:41:35;;;;;;;0.95;0.85;;;11.10;99.90;;;;;;4993268;28;20574;-78
2021/05/12 02:44:01;;;;;;;0.60;0.55;;;11.10;99.90;;;;;;4993369;28;20206;-80
2021/05/12 02:46:28;;;;;;;2.15;2.05;;;11.00;99.90;;;;;;4993249;28;20235;-77
2021/05/12 02:48:54;;;;;;;1.13;1.13;;;11.00;99.90;;;;;;4993330;28;20190;-77
2021/05/12 02:51:20;;;;;;;0.50;0.50;;;11.00;99.90;;;;;;4993152;28;20268;-77
2021/05/12 02:53:46;;;;;;;0.80;0.80;;;10.90;99.90;;;;;;4992854;28;20597;-79
2021/05/12 02:56:13;;;;;;;1.60;1.55;;;10.90;99.90;;;;;;4995307;28;20598;-79
2021/05/12 02:58:39;;;;;;;0.50;0.40;;;10.90;99.90;;;;;;4996700;28;20210;-79
2021/05/12 03:01:05;;;;;;;1.02;0.70;;;10.90;99.90;;;;;;4993075;28;20738;-78
2021/05/12 03:03:32;;;;;;;2.30;2.03;;;10.80;99.90;;;;;;4992779;28;20601;-78
2021/05/12 03:05:59;;;;;;;1.90;1.55;;;10.80;99.90;;;;;;4992807;28;20227;-77
2021/05/12 03:08:25;;;;;;;1.48;1.38;;;10.80;99.90;;;;;;4992931;28;20275;-77
2021/05/12 03:10:51;;;;;;;1.95;1.85;;;10.80;99.90;;;;;;4992940;28;20285;-76
2021/05/12 03:13:17;;;;;;;2.05;1.95;;;10.70;99.90;;;;;;4992483;28;20203;-77
2021/05/12 03:15:43;;;;;;;4.10;3.63;;;10.70;99.90;;;;;;4993033;28;20216;-77
2021/05/12 03:18:10;;;;;;;0.50;0.40;;;10.70;99.90;;;;;;4992654;28;20212;-78
2021/05/12 03:20:37;;;;;;;0.50;0.47;;;10.70;99.90;;;;;;4993036;28;20197;-78
2021/05/12 03:23:04;;;;;;;3.17;2.97;;;10.70;99.90;;;;;;4992560;28;20625;-77
2021/05/12 03:25:30;;;;;;;4.05;3.17;;;10.70;99.90;;;;;;4992723;28;20277;-76
2021/05/12 03:27:56;;;;;;;0.50;0.40;;;10.70;99.90;;;;;;4998336;28;20193;-78
2021/05/12 03:30:25;;;;;;;1.05;0.90;;;10.70;99.90;;;;;;4992793;28;20194;-78
2021/05/12 03:32:51;;;;;;;7.93;4.00;;;10.70;99.90;;;;;;4993093;28;20202;-79
2021/05/12 03:35:18;;;;;;;2.35;1.90;;;10.60;99.90;;;;;;4992125;28;20269;-78
2021/05/12 03:37:46;;;;;;;0.60;0.55;;;10.60;99.90;;;;;;4992495;28;20215;-78
2021/05/12 03:40:13;;;;;;;0.50;0.40;;;10.60;99.90;;;;;;4992361;28;20207;-77
2021/05/12 03:42:39;;;;;;;2.97;1.15;;;10.60;99.90;;;;;;4991877;28;20681;-77
2021/05/12 03:45:07;;;;;;;4.82;3.05;;;10.60;99.90;;;;;;4991809;28;20227;-77
2021/05/12 03:47:34;;;;;;;2.53;2.33;;;10.60;99.90;;;;;;4992714;28;20216;-77
2021/05/12 03:50:00;;;;;;;0.80;0.50;;;10.60;99.90;;;;;;4992423;28;20229;-79
2021/05/12 03:52:27;;;;;;;1.55;1.45;;;10.60;99.90;;;;;;4992126;28;20203;-78
2021/05/12 03:54:54;;;;;;;0.75;0.70;;;10.60;99.90;;;;;;4992020;28;20225;-77
2021/05/12 03:57:20;;;;;;;3.35;3.15;;;10.60;99.90;;;;;;4998344;28;20566;-77
2021/05/12 03:59:46;;;;;;;1.90;1.02;;;10.70;99.90;;;;;;4991970;28;20214;-77
2021/05/12 04:02:13;;;;;;;0.93;0.93;;;10.60;99.90;;;;;;4992387;28;20197;-76
2021/05/12 04:04:39;;;;;;;1.15;1.15;;;10.70;99.90;;;;;;4991717;28;20201;-77
2021/05/12 04:07:05;;;;;;;1.55;1.48;;;10.70;99.90;;;;;;4992039;28;20539;-76
2021/05/12 04:09:31;;;;;;;0.50;0.40;;;10.70;99.90;;;;;;4991948;28;20229;-76
2021/05/12 04:11:58;;;;;;;2.70;2.60;;;10.70;99.90;;;;;;4992289;28;20200;-79
2021/05/12 04:14:25;;;;;;;5.00;2.10;;;10.70;99.90;;;;;;4992163;28;20324;-78
2021/05/12 04:16:52;;;;;;;0.50;0.40;;;10.70;99.90;;;;;;4992515;28;20202;-77
2021/05/12 04:19:19;;;;;;;0.50;0.50;;;10.80;99.90;;;;;;4992101;28;20223;-78
2021/05/12 04:21:45;;;;;;;0.50;0.45;;;10.80;99.90;;;;;;4992309;28;20209;-77
2021/05/12 04:24:12;;;;;;;0.50;0.40;;;10.70;99.90;;;;;;4992526;28;20565;-76
2021/05/12 04:26:39;;;;;;;1.60;1.50;;;10.80;99.90;;;;;;4997428;28;20711;-77
2021/05/12 04:29:06;;;;;;;3.03;2.80;;;10.80;99.90;;;;;;4991781;28;20235;-78
2021/05/12 04:31:34;;;;;;;2.25;2.15;;;10.80;99.90;;;;;;4993299;28;20294;-78
2021/05/12 04:34:01;;;;;;;0.60;0.52;;;10.80;99.90;;;;;;4992592;28;20223;-78
2021/05/12 04:36:27;;;;;;;0.70;0.70;;;10.80;99.90;;;;;;4992620;28;20225;-77
2021/05/12 04:38:53;;;;;;;1.63;1.63;;;10.90;99.90;;;;;;4992699;28;20267;-77
2021/05/12 04:41:19;;;;;;;1.20;1.20;;;10.90;99.90;;;;;;4992919;28;20285;-77
2021/05/12 04:43:46;;;;;;;1.30;1.20;;;10.90;99.90;;;;;;4992553;28;20249;-77
2021/05/12 04:46:13;;;;;;;0.82;0.73;;;10.90;99.90;;;;;;4997419;28;20297;-80
2021/05/12 04:48:39;;;;;;;1.88;1.77;;;11.00;99.90;;;;;;5002396;28;20695;-77
2021/05/12 04:51:05;;;;;;;0.60;0.60;;;11.00;99.90;;;;;;4998425;28;20203;-78
2021/05/12 04:53:31;;;;;;;2.55;1.65;;;11.00;99.90;;;;;;4999978;28;20235;-77
2021/05/12 04:55:58;;;;;;;2.70;1.20;;;11.10;99.90;;;;;;5001764;28;20222;-77
2021/05/12 04:58:24;;;;;;;0.88;0.88;;;11.10;99.90;;;;;;4999940;28;20214;-79
2021/05/12 05:00:50;;;;;;;2.58;2.38;;;11.20;99.90;;;;;;4996402;28;20195;-79
2021/05/12 05:03:17;;;;;;;2.58;2.47;;;11.20;99.90;;;;;;4995521;28;20199;-78
2021/05/12 05:05:44;;;;;;;3.08;1.88;;;11.30;99.90;;;;;;4996698;28;20616;-79
2021/05/12 05:08:10;;;;;;;1.58;1.48;;;11.30;99.90;;;;;;4995685;28;20197;-79
2021/05/12 05:10:36;;;;;;;2.35;1.88;;;11.40;99.90;;;;;;4996027;28;20580;-78
2021/05/12 05:13:03;;;;;;;0.85;0.85;;;11.40;99.90;;;;;;4995676;28;20206;-77
2021/05/12 05:15:29;;;;;;;0.82;0.82;;;11.50;99.90;;;;;;4995633;28;20220;-78
2021/05/12 05:17:57;;;;;;;1.30;1.30;;;11.60;99.90;;;;;;4997497;28;20218;-79
2021/05/12 05:20:26;;;;;;;0.57;0.50;;;11.60;99.90;;;;;;4996979;28;20200;-78
2021/05/12 05:22:52;;;;;;;0.70;0.70;;;11.70;99.90;;;;;;4997690;28;20582;-77
2021/05/12 05:25:18;;;;;;;1.15;1.05;;;11.70;99.90;;;;;;4998547;28;20219;-80
2021/05/12 05:27:45;;;;;;;0.50;0.40;;;11.70;99.90;;;;;;5002627;28;20198;-80
2021/05/12 05:30:12;;;;;;;1.70;1.63;;;11.70;99.90;;;;;;4997236;28;20200;-80
2021/05/12 05:32:38;;;;;;;0.50;0.50;;;11.80;99.90;;;;;;5000367;28;20222;-80
2021/05/12 05:35:06;;;;;;;1.98;1.88;;;12.00;99.90;;;;;;4997574;28;20239;-80
2021/05/12 05:37:33;;;;;;;1.73;1.23;;;12.10;99.90;;;;;;4996082;28;20204;-79
2021/05/12 05:39:59;;;;;;;3.00;2.90;;;12.30;99.90;;;;;;4994335;28;20208;-78
2021/05/12 05:42:26;;;;;;;0.80;0.77;;;12.50;99.90;;;;;;4983476;28;20203;-81
2021/05/12 05:44:52;;;;;;;1.40;1.05;;;12.60;99.90;;;;;;4991805;28;20228;-77
2021/05/12 05:47:18;;;;;;;3.92;2.45;;;12.80;99.90;;;;;;4992613;28;20207;-78
2021/05/12 05:49:46;;;;;;;0.50;0.50;;;12.90;99.90;;;;;;4994485;28;20551;-78
2021/05/12 05:52:12;;;;;;;3.25;3.05;;;13.00;99.90;;;;;;5054677;22;20203;-77
2021/05/12 05:54:39;;;;;;;0.50;0.40;;;13.10;99.90;;;;;;4994026;28;20573;-80
2021/05/12 05:57:07;;;;;;;1.60;1.50;;;13.20;99.90;;;;;;4984153;28;20284;-80
2021/05/12 05:59:33;;;;;;;5.28;2.05;;;13.30;99.90;;;;;;5002708;28;20216;-80
2021/05/12 06:02:01;;;;;;;1.83;1.60;;;13.40;99.90;;;;;;5003747;28;20270;-78
2021/05/12 06:04:27;;;;;;;1.50;1.25;;;13.40;99.90;;;;;;4983974;28;20197;-80
2021/05/12 06:06:54;;;;;;;0.63;0.63;;;13.40;99.90;;;;;;4983745;28;20260;-79
2021/05/12 06:09:22;;;;;;;4.75;1.80;;;13.50;99.90;;;;;;4983638;28;20193;-81
2021/05/12 06:11:49;;;;;;;0.50;0.40;;;13.60;99.90;;;;;;4983561;28;20228;-81
2021/05/12 06:14:16;;;;;;;0.50;0.40;;;13.70;99.90;;;;;;4982977;28;20237;-81
2021/05/12 06:16:42;;;;;;;0.93;0.93;;;13.80;99.90;;;;;;4983657;28;20448;-81
2021/05/12 06:19:09;;;;;;;0.50;0.30;;;13.90;99.90;;;;;;4983207;28;20220;-81
2021/05/12 06:21:35;;;;;;;0.50;0.40;;;14.00;99.90;;;;;;4983617;28;20449;-82
2021/05/12 06:24:01;;;;;;;0.93;0.93;;;14.10;99.90;;;;;;4980930;28;20225;-80
2021/05/12 06:26:27;;;;;;;0.50;0.40;;;14.20;99.90;;;;;;4965401;28;20964;-80
2021/05/12 06:28:54;;;;;;;0.53;0.53;;;14.30;99.90;;;;;;4965952;28;20194;-81
2021/05/12 06:31:21;;;;;;;0.80;0.80;;;14.60;99.90;;;;;;4965232;28;20461;-81
2021/05/12 06:33:47;;;;;;;0.50;0.40;;;14.70;99.90;;;;;;4963434;28;20481;-81
2021/05/12 06:36:15;;;;;;;0.50;0.40;;;14.70;99.90;;;;;;4988571;28;20444;-82
2021/05/12 06:38:42;;;;;;;0.50;0.30;;;14.80;99.90;;;;;;5003694;28;20506;-80
2021/05/12 06:41:08;;;;;;;0.50;0.50;;;14.90;99.90;;;;;;5003263;28;20516;-80
2021/05/12 06:43:34;;;;;;;1.43;1.43;;;15.00;99.90;;;;;;5002225;28;20483;-81
2021/05/12 06:46:02;;;;;;;0.93;0.93;;;15.00;99.90;;;;;;5002605;28;20451;-79
2021/05/12 06:48:28;;;;;;;0.60;0.50;;;14.90;99.90;;;;;;5002661;28;20483;-81
2021/05/12 06:50:54;;;;;;;0.70;0.70;;;14.70;99.90;;;;;;5002575;28;20200;-80
2021/05/12 06:53:28;;;;;;;1.37;1.37;;;14.70;99.90;;;;;;4993192;28;20233;-81
2021/05/12 06:55:55;;;;;;;0.50;0.40;;;14.80;99.90;;;;;;4971376;28;20446;-80
2021/05/12 06:58:21;;;;;;;1.43;1.13;;;15.20;99.90;;;;;;4963891;28;20476;-80
2021/05/12 07:00:49;;;;;;;3.43;3.23;;;15.80;99.90;;;;;;4986710;28;20448;-81
2021/05/12 07:03:16;;;;;;;2.93;2.83;;;16.30;99.90;;;;;;4997022;28;20993;-80
2021/05/12 07:05:42;;;;;;;0.50;0.40;;;16.60;99.90;;;;;;4997129;28;20448;-80
2021/05/12 07:08:08;;;;;;;1.57;1.47;;;17.00;99.90;;;;;;4998412;28;20470;-80
2021/05/12 07:10:35;;;;;;;2.20;1.30;;;17.10;99.90;;;;;;4998331;28;20451;-80
2021/05/12 07:13:01;;;;;;;0.60;0.50;;;17.00;99.90;;;;;;4999091;28;20561;-79
2021/05/12 07:15:27;;;;;;;0.70;0.70;;;17.00;99.90;;;;;;4998108;28;20448;-80
2021/05/12 07:17:54;;;;;;;0.50;0.30;;;17.10;99.90;;;;;;4998094;28;20474;-80
2021/05/12 07:20:21;;;;;;;3.13;1.83;;;17.10;99.90;;;;;;4998490;28;20440;-80
2021/05/12 07:22:47;;;;;;;0.60;0.60;;;17.10;99.90;;;;;;5000137;28;20469;-80
2021/05/12 07:25:14;;;;;;;2.50;1.63;;;16.80;99.90;;;;;;4974244;28;20846;-82
2021/05/12 07:27:41;;;;;;;2.57;2.37;;;16.90;99.90;;;;;;4983542;28;20448;-81
2021/05/12 07:30:08;;;;;;;1.00;1.00;;;17.00;99.90;;;;;;4983180;28;20978;-82
2021/05/12 07:32:35;;;;;;;1.63;1.23;;;17.00;99.90;;;;;;4982064;28;20472;-81
2021/05/12 07:35:01;;;;;;;1.17;1.17;;;17.00;99.90;;;;;;4978944;28;20444;-80
2021/05/12 07:37:28;;;;;;;0.50;0.37;;;16.90;99.90;;;;;;4976950;28;20428;-82
2021/05/12 07:39:54;;;;;;;0.60;0.60;;;16.90;99.90;;;;;;4980581;28;20472;-82
2021/05/12 07:42:24;;;;;;;1.30;1.23;;;17.10;99.90;;;;;;4980824;28;20933;-81
2021/05/12 07:44:50;;;;;;;0.60;0.50;;;17.40;99.90;;;;;;4981232;28;20500;-81
2021/05/12 07:47:16;;;;;;;4.67;1.43;;;17.60;99.90;;;;;;4981244;28;20806;-80
2021/05/12 07:49:43;;;;;;;1.17;1.07;;;17.90;99.90;;;;;;4981410;28;20449;-81
2021/05/12 07:52:13;;;;;;;0.80;0.77;;;17.90;99.90;;;;;;4981218;28;20451;-81
2021/05/12 07:54:41;;;;;;;0.50;0.33;;;17.70;99.90;;;;;;4972535;28;20456;-80
2021/05/12 07:57:08;;;;;;;2.70;0.87;;;17.60;99.90;;;;;;4961630;28;20456;-80
2021/05/12 07:59:34;;;;;;;1.17;0.83;;;17.40;99.90;;;;;;4961044;28;20488;-82
2021/05/12 08:02:02;;;;;;;0.60;0.43;;;17.40;99.90;;;;;;4971991;28;20862;-80
2021/05/12 08:04:28;;;;;;;0.50;0.40;;;17.50;99.90;;;;;;4981284;28;20472;-80
2021/05/12 08:06:55;;;;;;;1.93;1.80;;;17.90;99.90;;;;;;4981268;28;20960;-81
2021/05/12 08:09:21;;;;;;;0.50;0.40;;;18.20;99.90;;;;;;4980225;28;20447;-79
2021/05/12 08:11:49;;;;;;;0.97;0.97;;;18.30;99.90;;;;;;4980727;28;20444;-80
2021/05/12 08:14:15;;;;;;;5.33;1.33;;;18.70;99.90;;;;;;4980011;28;20475;-80
2021/05/12 08:16:42;;;;;;;5.33;2.07;;;18.90;99.90;;;;;;4981192;28;20823;-80
2021/05/12 08:19:08;;;;;;;0.50;0.50;;;19.00;99.90;;;;;;4980637;28;20503;-81
2021/05/12 08:21:35;;;;;;;1.77;1.67;;;18.40;99.90;;;;;;4982102;28;20445;-80
2021/05/12 08:24:01;;;;;;;0.50;0.50;;;18.20;99.90;;;;;;4976900;28;20469;-82
2021/05/12 08:26:28;;;;;;;1.80;1.70;;;18.30;99.90;;;;;;4975266;28;20444;-80
2021/05/12 08:28:56;;;;;;;1.10;0.97;;;18.40;99.90;;;;;;4984382;28;20449;-81
2021/05/12 08:31:23;;;;;;;0.50;0.30;;;18.30;99.90;;;;;;4984525;28;20445;-80
2021/05/12 08:33:49;;;;;;;1.73;1.63;;;18.20;99.90;;;;;;4983644;28;20468;-80
2021/05/12 08:36:15;;;;;;;2.57;2.37;;;18.00;99.90;;;;;;4983672;28;20450;-81
2021/05/12 08:38:46;;;;;;;1.30;1.20;;;18.00;99.90;;;;;;4984094;28;20464;-79
2021/05/12 08:41:14;;;;;;;24.97;3.23;;;17.70;99.90;;;;;;4985049;28;20451;-78
2021/05/12 08:43:41;;;;;;;2.10;1.83;;;17.60;99.90;;;;;;4984107;28;20472;-79
2021/05/12 08:46:09;;;;;;;0.50;0.40;;;17.90;99.90;;;;;;4980859;28;20462;-78
2021/05/12 08:48:37;;;;;;;1.67;1.60;;;18.20;99.90;;;;;;4982668;28;20442;-81
2021/05/12 08:51:04;;;;;;;2.50;0.70;;;18.30;99.90;;;;;;4982692;28;20463;-80
2021/05/12 08:53:37;;;;;;;1.67;1.57;;;18.80;99.90;;;;;;4985361;28;20501;-79
2021/05/12 08:56:06;;;;;;;2.00;1.90;;;19.10;99.90;;;;;;4990148;28;20464;-81
2021/05/12 08:58:33;;;;;;;0.70;0.70;;;20.00;99.90;;;;;;4981980;28;20498;-80
2021/05/12 09:01:00;;;;;;;1.07;0.70;;;21.10;99.90;;;;;;4982015;28;20441;-80
2021/05/12 09:03:27;;;;;;;0.50;0.50;;;21.20;99.90;;;;;;4981672;28;20500;-80
2021/05/12 09:05:57;;;;;;;0.50;0.40;;;21.10;99.90;;;;;;4981571;28;20447;-81
2021/05/12 09:08:25;;;;;;;1.27;0.87;;;20.70;99.90;;;;;;4980903;28;20573;-80
2021/05/12 09:10:52;;;;;;;0.50;0.33;;;20.00;99.90;;;;;;4983530;28;20503;-80
2021/05/12 09:13:28;;;;;;;0.50;0.40;;;19.40;99.90;;;;;;4993019;28;20996;-80
2021/05/12 09:15:55;;;;;;;1.53;0.90;;;19.30;99.90;;;;;;5001003;28;20447;-80
2021/05/12 09:18:29;;;;;;;2.10;2.00;;;19.10;99.90;;;;;;5001099;28;20482;-80
2021/05/12 09:20:55;;;;;;;2.00;1.90;;;18.60;99.90;;;;;;5002278;28;20435;-82
2021/05/12 09:23:25;;;;;;;0.90;0.90;;;18.20;99.90;;;;;;5000880;28;20481;-81
2021/05/12 09:25:54;;;;;;;0.97;0.97;;;17.80;99.90;;;;;;4975908;28;20441;-81
2021/05/12 09:28:22;;;;;;;2.77;2.20;;;17.50;99.90;;;;;;4963557;28;20442;-81
2021/05/12 09:30:50;;;;;;;0.50;0.40;;;17.20;99.90;;;;;;4964379;28;20486;-82
2021/05/12 09:33:26;;;;;;;0.80;0.70;;;17.10;99.90;;;;;;4963757;28;20471;-81
2021/05/12 09:35:53;;;;;;;0.50;0.30;;;17.10;99.90;;;;;;4972041;28;20444;-82
2021/05/12 09:38:21;;;;;;;0.50;0.50;;;17.50;99.90;;;;;;4981435;28;20492;-82
2021/05/12 09:41:08;;;;;;;0.50;0.40;;;18.60;99.90;;;;;;4981978;28;20830;-82
2021/05/12 09:43:36;;;;;;;0.50;0.30;;;19.10;99.90;;;;;;4984831;28;20475;-79
2021/05/12 09:46:19;;;;;;;4.23;2.73;;;18.70;99.90;;;;;;4986565;28;20834;-79
2021/05/12 09:49:06;;;;;;;1.37;1.07;;;18.80;99.90;;;;;;4980983;28;20435;-81
2021/05/12 09:51:35;;;;;;;1.33;0.70;;;19.40;99.90;;;;;;4981225;28;20432;-80
2021/05/12 09:54:04;;;;;;;0.73;0.73;;;20.20;99.90;;;;;;4977471;28;20485;-80
2021/05/12 09:56:41;;;;;;;0.50;0.30;;;20.20;99.90;;;;;;4976861;28;20430;-82
2021/05/12 09:59:09;;;;;;;0.50;0.50;;;20.00;99.90;;;;;;4982686;28;20469;-80
2021/05/12 10:01:47;;;;;;;2.20;2.00;;;20.10;99.90;;;;;;4982648;28;20910;-81
2021/05/12 10:04:21;;;;;;;0.50;0.30;;;20.60;99.90;;;;;;4980037;28;20474;-81
2021/05/12 10:06:48;;;;;;;1.50;1.03;;;20.80;99.90;;;;;;4981396;28;20685;-81
2021/05/12 10:09:18;;;;;;;1.80;1.70;;;21.10;99.90;;;;;;4980410;28;20441;-80
2021/05/12 10:11:59;;;;;;;1.60;1.37;;;20.90;99.90;;;;;;4978718;28;20850;-81
2021/05/12 10:14:26;;;;;;;0.80;0.80;;;21.00;99.90;;;;;;4979185;28;20471;-80
2021/05/12 10:16:52;;;;;;;0.50;0.30;;;21.70;99.90;;;;;;4980333;28;20444;-80
2021/05/12 10:19:19;;;;;;;1.67;0.87;;;22.20;99.90;;;;;;4986861;28;20482;-81
2021/05/12 10:21:47;;;;;;;0.50;0.40;;;22.30;99.90;;;;;;4996920;28;20440;-83
2021/05/12 10:24:14;;;;;;;0.87;0.87;;;22.00;99.90;;;;;;4979104;28;20469;-81
2021/05/12 10:26:42;;;;;;;0.60;0.50;;;21.60;99.90;;;;;;4976576;28;20441;-82
2021/05/12 10:29:09;;;;;;;1.03;1.03;;;21.20;99.90;;;;;;4980427;28;20453;-80
2021/05/12 10:31:37;;;;;;;0.50;0.30;;;20.80;99.90;;;;;;4980514;28;20930;-82
2021/05/12 10:34:03;;;;;;;0.73;0.70;;;20.30;99.90;;;;;;4979598;28;20449;-80
2021/05/12 10:36:30;;;;;;;0.50;0.30;;;20.90;99.90;;;;;;4979965;28;20437;-81
2021/05/12 10:38:57;;;;;;;0.50;0.40;;;21.40;99.90;;;;;;4980266;28;20480;-81
2021/05/12 10:41:41;;;;;;;0.50;0.50;;;21.60;99.90;;;;;;4980860;28;20825;-81
2021/05/12 10:44:12;;;;;;;0.50;0.40;;;21.80;99.90;;;;;;4980460;28;20874;-78
2021/05/12 10:46:46;;;;;;;0.50;0.40;;;21.70;99.90;;;;;;4980163;28;20541;-81
2021/05/12 10:49:21;;;;;;;0.60;0.57;;;21.50;99.90;;;;;;4980129;28;20449;-81
2021/05/12 10:51:48;;;;;;;0.50;0.40;;;20.90;99.90;;;;;;4980407;28;20444;-81
2021/05/12 10:54:14;;;;;;;0.50;0.30;;;20.60;99.90;;;;;;4974481;28;20606;-81
2021/05/12 10:56:43;;;;;;;0.50;0.40;;;20.20;99.90;;;;;;4960372;28;20505;-80
2021/05/12 10:59:11;;;;;;;0.60;0.50;;;20.00;99.90;;;;;;4960493;28;20488;-81
2021/05/12 11:01:53;;;;;;;0.60;0.60;;;19.70;99.90;;;;;;4960793;28;20442;-80
2021/05/12 11:04:22;;;;;;;0.50;0.50;;;19.40;99.90;;;;;;4959898;28;20476;-81
2021/05/12 11:07:02;;;;;;;0.73;0.73;;;19.30;99.90;;;;;;4960948;28;20839;-81
2021/05/12 11:09:49;;;;;;;1.40;1.30;;;19.30;99.90;;;;;;4964482;28;20525;-80
2021/05/12 11:12:19;;;;;;;0.50;0.30;;;19.30;99.90;;;;;;4975665;28;20523;-81
2021/05/12 11:15:07;;;;;;;0.50;0.40;;;19.30;99.90;;;;;;4974704;28;20987;-80
2021/05/12 11:17:50;;;;;;;2.87;0.83;;;19.60;99.90;;;;;;4960217;28;20434;-81
2021/05/12 11:20:25;;;;;;;0.50;0.30;;;20.00;99.90;;;;;;4962000;28;20472;-78
2021/05/12 11:22:54;;;;;;;0.83;0.83;;;20.20;99.90;;;;;;4965829;28;20551;-80
2021/05/12 11:25:38;;;;;;;1.00;1.00;;;20.10;99.90;;;;;;4973843;28;20448;-80
2021/05/12 11:33:55;;;;;;;0.50;0.30;;;20.70;99.90;;;;;;4959082;29;21007;-80
2021/05/12 11:36:26;;;;;;;0.50;0.40;;;21.40;99.90;;;;;;4960234;28;21026;-80
2021/05/12 11:38:53;;;;;;;0.50;0.40;;;21.50;99.90;;;;;;4960138;28;20478;-80
2021/05/12 11:41:21;;;;;;;0.50;0.40;;;21.80;99.90;;;;;;4961336;28;20445;-81
2021/05/12 11:43:51;;;;;;;0.50;0.40;;;22.20;97.80;;;;;;4961056;28;20532;-80
2021/05/12 11:46:18;;;;;;;0.50;0.30;;;22.00;96.50;;;;;;4959991;28;20430;-80
2021/05/12 11:48:47;;;;;;;0.87;0.87;;;22.10;99.90;;;;;;4961736;28;21026;-81
2021/05/12 11:51:28;;;;;;;0.50;0.40;;;21.90;99.90;;;;;;4964015;28;20449;-81
2021/05/12 11:53:55;;;;;;;0.50;0.33;;;21.50;98.90;;;;;;4971446;28;20487;-80
2021/05/12 11:56:22;;;;;;;0.50;0.40;;;21.40;99.90;;;;;;5003310;22;20882;-77
2021/05/12 11:58:55;;;;;;;0.50;0.40;;;21.20;99.90;;;;;;5010915;28;20478;-77
2021/05/12 12:01:21;;;;;;;0.57;0.57;;;21.20;99.90;;;;;;5010855;28;20445;-78
2021/05/12 12:04:01;;;;;;;0.50;0.30;;;21.20;97.40;;;;;;5011817;28;20445;-78
2021/05/12 12:06:28;;;;;;;0.50;0.30;;;21.20;96.60;;;;;;5011789;28;20557;-78
2021/05/12 12:08:54;;;;;;;0.93;0.93;;;21.40;95.90;;;;;;5011955;28;20434;-78
2021/05/12 12:11:21;;;;;;;0.50;0.30;;;21.50;94.30;;;;;;5011667;28;20450;-78
2021/05/12 12:13:59;;;;;;;0.50;0.40;;;21.60;93.90;;;;;;5010908;28;20477;-77
2021/05/12 12:16:25;;;;;;;0.50;0.40;;;21.80;92.20;;;;;;5012115;28;20529;-78
2021/05/12 12:18:52;;;;;;;0.50;0.30;;;22.10;89.70;;;;;;5012148;28;20558;-77
2021/05/12 12:21:27;;;;;;;0.70;0.70;;;22.70;90.60;;;;;;5011795;28;20443;-77
2021/05/12 12:23:53;;;;;;;14.73;0.97;;;23.40;81.20;;;;;;5011825;28;20442;-78
2021/05/12 12:26:19;;;;;;;0.50;0.40;;;23.50;75.80;;;;;;5011473;28;20454;-77
2021/05/12 12:28:48;;;;;;;0.60;0.57;;;23.40;71.70;;;;;;5004415;28;20515;-78
2021/05/12 12:31:19;;;;;;;0.50;0.30;;;23.30;72.10;;;;;;5012490;28;20500;-77
2021/05/12 12:34:07;;;;;;;0.50;0.30;;;24.00;72.60;;;;;;5011975;28;20439;-78
2021/05/12 12:36:33;;;;;;;0.50;0.33;;;25.20;70.50;;;;;;5012483;28;20471;-78
2021/05/12 12:39:02;;;;;;;0.50;0.30;;;26.40;68.50;;;;;;5012192;28;20484;-75
2021/05/12 12:41:29;;;;;;;0.50;0.40;;;26.90;63.40;;;;;;5012476;28;20800;-79
2021/05/12 12:43:55;;;;;;;1.67;0.97;;;27.40;59.00;;;;;;5012046;28;20457;-78
2021/05/12 12:46:27;;;;;;;0.50;0.30;;;28.10;57.30;;;;;;5011904;28;20459;-78
2021/05/12 12:48:53;;;;;;;0.50;0.30;;;28.30;57.90;;;;;;5012082;28;20439;-76
2021/05/12 12:51:33;;;;;;;0.50;0.30;;;28.30;56.60;;;;;;5011751;28;20435;-78
2021/05/12 12:54:00;;;;;;;0.50;0.30;;;26.90;59.40;;;;;;5012121;28;20443;-78
2021/05/12 12:56:26;;;;;;;0.50;0.30;;;25.80;64.60;;;;;;5011926;28;21025;-77